createdAt,value
2018-11-07T00:01:28.905Z,90.40
2018-11-07T00:03:57.869Z,90.40
2018-11-07T00:06:26.489Z,90.50
2018-11-07T00:08:55.817Z,90.60
2018-11-07T00:11:24.843Z,90.60
2018-11-07T00:13:54.612Z,90.60
2018-11-07T00:16:23.671Z,90.70
2018-11-07T00:18:53.070Z,90.80
2018-11-07T00:21:22.329Z,90.80
2018-11-07T00:23:50.854Z,90.70
2018-11-07T00:26:20.264Z,90.70
2018-11-07T00:28:48.810Z,90.70
2018-11-07T00:31:17.422Z,90.70
2018-11-07T00:33:46.686Z,90.70
2018-11-07T00:36:15.508Z,90.70
2018-11-07T00:38:44.066Z,90.70
2018-11-07T00:41:14.646Z,90.70
2018-11-07T00:43:46.362Z,90.70
2018-11-07T00:46:15.103Z,90.70
2018-11-07T00:48:44.567Z,90.70
2018-11-07T00:51:13.142Z,90.60
2018-11-07T00:53:41.666Z,90.60
2018-11-07T00:56:10.272Z,90.60
2018-11-07T00:58:38.816Z,90.60
2018-11-07T01:01:08.056Z,90.50
2018-11-07T01:03:36.691Z,90.90
2018-11-07T01:06:05.488Z,90.50
2018-11-07T01:08:34.113Z,90.60
2018-11-07T01:11:02.645Z,90.50
2018-11-07T01:13:31.600Z,90.40
2018-11-07T01:16:00.094Z,90.40
2018-11-07T01:18:28.668Z,90.60
2018-11-07T01:20:58.107Z,90.40
2018-11-07T01:23:27.679Z,90.40
2018-11-07T01:25:56.240Z,90.40
2018-11-07T01:28:24.946Z,90.40
2018-11-07T01:30:53.467Z,90.40
2018-11-07T01:33:22.561Z,90.40
2018-11-07T01:35:51.171Z,90.50
2018-11-07T01:38:20.869Z,90.50
2018-11-07T01:40:50.176Z,90.60
2018-11-07T01:43:18.763Z,90.60
2018-11-07T01:45:47.859Z,90.60
2018-11-07T01:48:16.561Z,90.60
2018-11-07T01:50:45.671Z,90.60
2018-11-07T01:53:17.070Z,90.60
2018-11-07T01:55:47.193Z,90.60
2018-11-07T01:58:17.389Z,90.40
2018-11-07T02:00:46.002Z,90.40
2018-11-07T02:03:14.599Z,90.40
2018-11-07T02:05:43.157Z,90.30
2018-11-07T02:08:11.864Z,90.30
2018-11-07T02:10:41.017Z,90.30
2018-11-07T02:13:09.900Z,90.20
2018-11-07T02:15:38.492Z,90.30
2018-11-07T02:18:07.551Z,90.30
2018-11-07T02:20:36.164Z,90.30
2018-11-07T02:23:04.886Z,90.20
2018-11-07T02:25:33.611Z,90.30
2018-11-07T02:28:02.243Z,90.30
2018-11-07T02:30:31.796Z,90.30
2018-11-07T02:33:01.021Z,90.30
2018-11-07T02:35:29.549Z,90.30
2018-11-07T02:37:59.629Z,90.30
2018-11-07T02:40:28.991Z,90.30
2018-11-07T02:42:57.571Z,90.20
2018-11-07T02:45:26.146Z,90.20
2018-11-07T02:47:54.826Z,90.20
2018-11-07T02:50:24.577Z,90.20
2018-11-07T02:52:53.332Z,90.10
2018-11-07T02:55:22.022Z,90.10
2018-11-07T02:57:50.590Z,90.10
2018-11-07T03:00:19.135Z,90.10
2018-11-07T03:02:47.983Z,90.10
2018-11-07T03:05:16.667Z,90.10
2018-11-07T03:07:45.252Z,90.10
2018-11-07T03:10:13.933Z,90.00
2018-11-07T03:12:42.721Z,90.00
2018-11-07T03:15:11.298Z,90.00
2018-11-07T03:17:40.029Z,90.10
2018-11-07T03:20:11.238Z,90.10
2018-11-07T03:22:39.922Z,90.10
2018-11-07T03:25:08.496Z,90.10
2018-11-07T03:27:38.293Z,90.10
2018-11-07T03:30:09.314Z,90.00
2018-11-07T03:32:37.930Z,90.10
2018-11-07T03:35:12.182Z,90.10
2018-11-07T03:37:41.414Z,90.00
2018-11-07T03:40:10.640Z,90.00
2018-11-07T03:42:39.190Z,90.00
2018-11-07T03:45:08.848Z,90.00
2018-11-07T03:47:37.418Z,90.00
2018-11-07T03:50:06.734Z,90.00
2018-11-07T03:52:35.591Z,90.30
2018-11-07T03:55:05.385Z,90.00
2018-11-07T03:57:33.952Z,90.00
2018-11-07T04:00:03.699Z,90.00
2018-11-07T04:02:32.406Z,90.00
2018-11-07T04:05:01.013Z,90.00
2018-11-07T04:07:29.573Z,90.00
2018-11-07T04:10:15.511Z,90.10
2018-11-07T04:12:44.522Z,90.00
2018-11-07T04:15:13.143Z,90.00
2018-11-07T04:17:41.724Z,90.00
2018-11-07T04:20:10.632Z,90.00
2018-11-07T04:22:39.315Z,90.00
2018-11-07T04:25:08.809Z,90.00
2018-11-07T04:27:37.868Z,90.00
2018-11-07T04:30:09.544Z,90.00
2018-11-07T04:32:38.105Z,90.00
2018-11-07T04:35:07.955Z,90.00
2018-11-07T04:37:36.504Z,90.00
2018-11-07T04:40:08.895Z,90.00
2018-11-07T04:42:40.508Z,90.00
2018-11-07T04:45:09.073Z,90.10
2018-11-07T04:47:47.104Z,90.00
2018-11-07T04:50:15.681Z,90.10
2018-11-07T04:52:45.456Z,90.00
2018-11-07T04:55:14.316Z,90.00
2018-11-07T04:57:42.892Z,90.00
2018-11-07T05:00:12.864Z,90.10
2018-11-07T05:02:42.205Z,90.20
2018-11-07T05:05:10.993Z,90.10
2018-11-07T05:07:39.596Z,90.10
2018-11-07T05:12:47.448Z,90.00
2018-11-07T05:15:16.547Z,90.00
2018-11-07T05:17:45.086Z,89.80
2018-11-07T05:20:13.637Z,89.80
2018-11-07T05:22:42.589Z,89.80
2018-11-07T05:25:11.793Z,89.80
2018-11-07T05:27:41.152Z,89.90
2018-11-07T05:30:10.599Z,90.00
2018-11-07T05:32:39.364Z,89.90
2018-11-07T05:35:08.243Z,89.90
2018-11-07T05:37:37.164Z,89.90
2018-11-07T05:40:06.213Z,90.00
2018-11-07T05:42:34.775Z,89.90
2018-11-07T05:45:03.582Z,89.90
2018-11-07T05:47:33.029Z,89.80
2018-11-07T05:50:01.550Z,89.70
2018-11-07T05:52:30.243Z,89.90
2018-11-07T05:54:59.411Z,90.00
2018-11-07T05:57:27.963Z,90.00
2018-11-07T05:59:56.815Z,89.90
2018-11-07T06:02:26.401Z,89.90
2018-11-07T06:04:55.121Z,89.90
2018-11-07T06:07:29.571Z,89.90
2018-11-07T06:09:58.205Z,89.90
2018-11-07T06:12:28.636Z,90.00
2018-11-07T06:14:58.407Z,90.00
2018-11-07T06:17:28.481Z,90.00
2018-11-07T06:19:58.223Z,89.90
2018-11-07T06:22:26.985Z,89.90
2018-11-07T06:24:55.649Z,89.90
2018-11-07T06:27:24.923Z,89.80
2018-11-07T06:29:53.612Z,89.70
2018-11-07T06:32:22.866Z,89.70
2018-11-07T06:34:52.124Z,89.60
2018-11-07T06:37:21.124Z,89.60
2018-11-07T06:40:02.408Z,89.70
2018-11-07T06:42:31.280Z,89.60
2018-11-07T06:45:00.413Z,89.80
2018-11-07T06:47:30.163Z,89.90
2018-11-07T06:49:58.794Z,89.80
2018-11-07T06:52:27.369Z,89.70
2018-11-07T06:54:58.603Z,89.70
2018-11-07T06:59:56.999Z,89.70
2018-11-07T07:02:26.741Z,90.10
2018-11-07T07:04:55.889Z,90.20
2018-11-07T07:07:24.627Z,89.90
2018-11-07T07:09:54.129Z,89.60
2018-11-07T07:12:22.753Z,89.60
2018-11-07T07:14:51.321Z,89.30
2018-11-07T07:17:20.192Z,89.50
2018-11-07T07:19:48.739Z,89.50
2018-11-07T07:22:17.308Z,89.50
2018-11-07T07:24:47.158Z,89.40
2018-11-07T07:27:15.994Z,89.30
2018-11-07T07:29:45.199Z,89.30
2018-11-07T07:32:13.775Z,89.40
2018-11-07T07:34:42.645Z,89.50
2018-11-07T07:37:11.991Z,89.50
2018-11-07T07:39:40.559Z,89.50
2018-11-07T07:42:10.109Z,89.40
2018-11-07T07:44:38.779Z,89.40
2018-11-07T07:47:07.609Z,89.30
2018-11-07T07:49:36.152Z,89.30
2018-11-07T07:52:05.187Z,89.60
2018-11-07T07:54:33.783Z,89.40
2018-11-07T07:57:10.807Z,89.30
2018-11-07T07:59:40.127Z,89.30
2018-11-07T08:02:08.664Z,89.40
2018-11-07T08:04:37.320Z,89.40
2018-11-07T08:07:06.279Z,89.60
2018-11-07T08:09:34.915Z,89.60
2018-11-07T08:12:04.965Z,89.70
2018-11-07T08:14:35.572Z,89.60
2018-11-07T08:17:04.949Z,89.70
2018-11-07T08:19:35.549Z,89.60
2018-11-07T08:22:04.118Z,89.60
2018-11-07T08:24:32.863Z,89.70
2018-11-07T08:27:04.267Z,89.60
2018-11-07T08:29:35.344Z,89.60
2018-11-07T08:32:04.040Z,89.40
2018-11-07T08:34:32.626Z,89.40
2018-11-07T08:37:01.182Z,89.30
2018-11-07T08:39:29.881Z,89.20
2018-11-07T08:41:58.734Z,89.20
2018-11-07T08:44:27.291Z,89.20
2018-11-07T08:46:58.073Z,89.10
2018-11-07T08:49:26.726Z,89.00
2018-11-07T08:51:58.552Z,88.90
2018-11-07T08:54:27.270Z,88.90
2018-11-07T08:56:55.901Z,88.90
2018-11-07T08:59:24.609Z,88.90
2018-11-07T09:01:53.187Z,89.40
2018-11-07T09:04:22.419Z,88.90
2018-11-07T09:06:51.431Z,89.00
2018-11-07T09:09:23.130Z,89.10
2018-11-07T09:11:51.783Z,89.20
2018-11-07T09:14:20.845Z,89.20
2018-11-07T09:16:50.088Z,89.40
2018-11-07T09:19:19.957Z,89.30
2018-11-07T09:21:48.484Z,89.50
2018-11-07T09:24:18.097Z,89.40
2018-11-07T09:26:46.660Z,89.70
2018-11-07T09:29:15.359Z,89.60
2018-11-07T09:31:44.742Z,89.50
2018-11-07T09:34:13.475Z,89.80
2018-11-07T09:36:42.758Z,89.80
2018-11-07T09:39:11.701Z,89.60
2018-11-07T09:41:40.419Z,90.10
2018-11-07T09:44:08.989Z,89.80
2018-11-07T09:46:37.639Z,89.60
2018-11-07T09:49:06.276Z,90.00
2018-11-07T09:51:34.996Z,90.00
2018-11-07T09:54:03.682Z,90.10
2018-11-07T09:56:32.317Z,90.30
2018-11-07T09:59:00.943Z,90.10
2018-11-07T10:01:29.569Z,90.10
2018-11-07T10:03:58.403Z,90.10
2018-11-07T10:06:27.070Z,90.20
2018-11-07T10:08:55.638Z,90.60
2018-11-07T10:11:24.270Z,90.30
2018-11-07T10:13:52.975Z,90.30
2018-11-07T10:18:51.600Z,90.10
2018-11-07T10:21:21.226Z,90.00
2018-11-07T10:23:49.939Z,90.00
2018-11-07T10:26:18.556Z,90.40
2018-11-07T10:28:47.568Z,90.00
2018-11-07T10:31:16.978Z,90.10
2018-11-07T10:33:46.278Z,89.80
2018-11-07T10:36:14.831Z,90.00
2018-11-07T10:38:43.548Z,89.80
2018-11-07T10:41:20.489Z,90.00
2018-11-07T10:43:58.467Z,90.00
2018-11-07T10:46:27.768Z,89.80
2018-11-07T10:48:56.671Z,90.00
2018-11-07T10:51:25.205Z,90.00
2018-11-07T10:53:53.733Z,89.80
2018-11-07T10:56:22.294Z,90.00
2018-11-07T10:58:50.915Z,89.60
2018-11-07T11:01:24.832Z,89.80
2018-11-07T11:03:53.403Z,90.00
2018-11-07T11:06:22.217Z,90.10
2018-11-07T11:08:51.658Z,90.10
2018-11-07T11:11:20.313Z,90.50
2018-11-07T11:13:49.495Z,90.40
2018-11-07T11:16:20.074Z,90.50
2018-11-07T11:18:59.854Z,90.70
2018-11-07T11:24:38.912Z,90.60
2018-11-07T11:27:07.624Z,90.70
2018-11-07T11:29:36.149Z,90.80
2018-11-07T11:32:05.603Z,91.30
2018-11-07T11:34:34.543Z,91.30
2018-11-07T11:37:13.140Z,91.30
2018-11-07T11:39:43.321Z,91.10
2018-11-07T11:42:12.693Z,91.20
2018-11-07T11:44:42.212Z,91.00
2018-11-07T11:47:11.821Z,90.80
2018-11-07T11:49:42.183Z,90.70
2018-11-07T11:52:11.799Z,90.70
2018-11-07T11:54:41.825Z,91.00
2018-11-07T11:57:11.969Z,91.10
2018-11-07T11:59:41.404Z,91.20
2018-11-07T12:02:10.349Z,91.10
2018-11-07T12:04:39.288Z,90.90
2018-11-07T12:07:07.944Z,91.20
2018-11-07T12:09:39.432Z,91.10
2018-11-07T12:12:08.306Z,91.30
2018-11-07T12:14:38.272Z,91.30
2018-11-07T12:17:06.867Z,91.40
2018-11-07T12:19:36.266Z,91.60
2018-11-07T12:22:04.928Z,91.40
2018-11-07T12:24:34.792Z,91.50
2018-11-07T12:27:06.024Z,91.60
2018-11-07T12:29:34.768Z,91.70
2018-11-07T12:32:03.300Z,91.50
2018-11-07T12:34:33.236Z,91.60
2018-11-07T12:37:03.506Z,91.60
2018-11-07T12:39:33.853Z,91.60
2018-11-07T12:42:04.034Z,91.70
2018-11-07T12:44:39.578Z,91.60
2018-11-07T12:47:11.392Z,91.60
2018-11-07T12:49:40.725Z,91.60
2018-11-07T12:52:10.868Z,91.70
2018-11-07T12:54:39.532Z,91.70
2018-11-07T12:57:09.231Z,91.70
2018-11-07T12:59:39.176Z,91.70
2018-11-07T13:02:08.563Z,91.70
2018-11-07T13:04:37.146Z,91.70
2018-11-07T13:07:06.998Z,91.80
2018-11-07T13:09:38.272Z,91.80
2018-11-07T13:12:07.499Z,91.80
2018-11-07T13:14:36.045Z,91.70
2018-11-07T13:17:04.671Z,91.70
2018-11-07T13:19:33.226Z,91.60
2018-11-07T13:22:01.842Z,91.70
2018-11-07T13:24:30.444Z,91.70
2018-11-07T13:26:59.132Z,91.50
2018-11-07T13:29:27.785Z,91.40
2018-11-07T13:31:56.383Z,91.30
2018-11-07T13:34:26.160Z,91.20
2018-11-07T13:36:55.576Z,91.20
2018-11-07T13:39:26.186Z,91.10
2018-11-07T13:41:57.122Z,91.10
2018-11-07T13:44:26.559Z,91.00
2018-11-07T13:46:55.154Z,90.90
2018-11-07T13:49:23.726Z,90.90
2018-11-07T13:51:52.279Z,90.90
2018-11-07T13:54:21.625Z,91.00
2018-11-07T13:56:51.592Z,90.90
2018-11-07T13:59:38.718Z,90.90
2018-11-07T14:02:14.777Z,90.50
2018-11-07T14:04:44.118Z,90.40
2018-11-07T14:07:13.789Z,90.30
2018-11-07T14:12:12.937Z,90.40
2018-11-07T14:14:42.194Z,90.40
2018-11-07T14:17:22.362Z,90.60
2018-11-07T14:19:52.106Z,90.60
2018-11-07T14:22:20.720Z,90.30
2018-11-07T14:24:49.324Z,90.30
2018-11-07T14:27:17.931Z,90.10
2018-11-07T14:29:47.730Z,90.00
2018-11-07T14:32:16.454Z,89.90
2018-11-07T14:34:46.849Z,89.70
2018-11-07T14:37:15.421Z,89.50
2018-11-07T14:39:44.348Z,89.70
2018-11-07T14:42:15.514Z,90.00
2018-11-07T14:44:44.645Z,90.10
2018-11-07T14:47:15.368Z,90.20
2018-11-07T14:49:44.029Z,90.20
2018-11-07T14:52:26.568Z,90.50
2018-11-07T14:55:12.670Z,90.30
2018-11-07T14:57:43.429Z,90.60
2018-11-07T15:00:14.776Z,90.40
2018-11-07T15:05:21.574Z,90.20
2018-11-07T15:07:50.414Z,90.00
2018-11-07T15:10:19.061Z,90.00
2018-11-07T15:12:48.034Z,90.00
2018-11-07T15:15:18.047Z,89.80
2018-11-07T15:17:52.246Z,89.80
2018-11-07T15:20:21.593Z,89.90
2018-11-07T15:22:51.462Z,90.00
2018-11-07T15:25:25.391Z,89.90
2018-11-07T15:27:57.422Z,89.90
2018-11-07T15:30:27.633Z,89.90
2018-11-07T15:32:56.635Z,90.00
2018-11-07T15:35:25.271Z,90.10
2018-11-07T15:37:54.760Z,90.20
2018-11-07T15:40:23.449Z,90.30
2018-11-07T15:42:52.080Z,90.30
2018-11-07T15:45:21.077Z,90.40
2018-11-07T15:47:49.846Z,90.40
2018-11-07T15:50:24.250Z,90.50
2018-11-07T15:52:52.925Z,90.60
2018-11-07T15:55:21.583Z,90.60
2018-11-07T15:57:50.142Z,90.60
2018-11-07T16:00:19.781Z,90.70
2018-11-07T16:02:48.800Z,90.80
2018-11-07T16:05:18.360Z,90.90
2018-11-07T16:07:49.709Z,90.90
2018-11-07T16:10:18.479Z,90.90
2018-11-07T16:12:48.925Z,91.00
2018-11-07T16:15:18.516Z,91.00
2018-11-07T16:17:47.081Z,91.00
2018-11-07T16:20:18.114Z,91.10
2018-11-07T16:22:47.509Z,91.20
2018-11-07T16:25:19.269Z,91.20
2018-11-07T16:27:48.610Z,91.30
2018-11-07T16:30:18.819Z,91.30
2018-11-07T16:32:48.316Z,91.30
2018-11-07T16:35:18.277Z,91.40
2018-11-07T16:37:47.318Z,91.40
2018-11-07T16:40:17.046Z,91.50
2018-11-07T16:42:46.504Z,91.50
2018-11-07T16:45:16.383Z,91.40
2018-11-07T16:47:45.565Z,91.40
2018-11-07T16:50:15.205Z,91.30
2018-11-07T16:52:44.912Z,91.30
2018-11-07T16:55:14.624Z,91.30
2018-11-07T16:57:45.023Z,91.30
2018-11-07T17:00:19.536Z,91.20
2018-11-07T17:02:48.600Z,91.20
2018-11-07T17:05:17.744Z,91.20
2018-11-07T17:07:46.659Z,91.20
2018-11-07T17:10:15.707Z,91.20
2018-11-07T17:12:45.452Z,91.00
2018-11-07T17:15:14.365Z,91.00
2018-11-07T17:17:47.602Z,91.00
2018-11-07T17:20:16.948Z,90.90
2018-11-07T17:22:45.945Z,91.00
2018-11-07T17:25:16.592Z,91.00
2018-11-07T17:27:45.974Z,91.00
2018-11-07T17:30:15.691Z,91.00
2018-11-07T17:32:46.145Z,91.00
2018-11-07T17:35:16.102Z,91.10
2018-11-07T17:37:45.174Z,91.10
2018-11-07T17:40:16.443Z,91.10
2018-11-07T17:42:46.274Z,91.00
2018-11-07T17:45:16.697Z,91.10
2018-11-07T17:47:49.787Z,91.10
2018-11-07T17:50:19.224Z,91.10
2018-11-07T17:52:48.497Z,91.10
2018-11-07T17:55:18.214Z,91.10
2018-11-07T17:57:46.996Z,91.10
2018-11-07T18:00:17.101Z,91.10
2018-11-07T18:02:45.969Z,91.10
2018-11-07T18:08:05.346Z,91.10
2018-11-07T18:10:33.910Z,91.00
2018-11-07T18:13:03.525Z,91.10
2018-11-07T18:15:32.919Z,91.10
2018-11-07T18:18:02.710Z,91.00
2018-11-07T18:20:31.321Z,91.10
2018-11-07T18:23:01.393Z,91.10
2018-11-07T18:25:30.890Z,91.00
2018-11-07T18:28:00.580Z,91.10
2018-11-07T18:30:29.214Z,91.00
2018-11-07T18:32:59.468Z,91.10
2018-11-07T18:35:28.040Z,91.20
2018-11-07T18:37:57.827Z,91.10
2018-11-07T18:40:26.555Z,91.20
2018-11-07T18:42:56.024Z,91.10
2018-11-07T18:45:26.371Z,91.00
2018-11-07T18:47:56.266Z,91.10
2018-11-07T18:50:25.122Z,91.20
2018-11-07T18:52:53.778Z,91.30
2018-11-07T18:55:23.755Z,91.30
2018-11-07T18:57:52.351Z,91.40
2018-11-07T19:00:21.349Z,91.40
2018-11-07T19:02:52.194Z,91.50
2018-11-07T19:05:21.060Z,91.40
2018-11-07T19:10:21.030Z,91.50
2018-11-07T19:12:50.903Z,91.50
2018-11-07T19:15:19.798Z,91.40
2018-11-07T19:17:49.880Z,91.40
2018-11-07T19:20:19.168Z,91.40
2018-11-07T19:22:48.140Z,91.40
2018-11-07T19:25:20.213Z,91.40
2018-11-07T19:27:48.906Z,91.30
2018-11-07T19:30:19.397Z,91.30
2018-11-07T19:32:49.744Z,91.10
2018-11-07T19:35:19.717Z,91.20
2018-11-07T19:37:50.709Z,91.30
2018-11-07T19:40:20.901Z,91.30
2018-11-07T19:42:50.150Z,91.30
2018-11-07T19:45:19.784Z,91.20
2018-11-07T19:47:48.903Z,91.20
2018-11-07T19:50:18.794Z,91.30
2018-11-07T19:52:48.841Z,91.30
2018-11-07T19:55:19.571Z,91.30
2018-11-07T19:57:51.953Z,91.30
2018-11-07T20:00:21.669Z,91.60
2018-11-07T20:02:50.328Z,91.30
2018-11-07T20:05:23.608Z,91.20
2018-11-07T20:07:55.388Z,91.10
2018-11-07T20:10:25.431Z,91.30
2018-11-07T20:12:54.038Z,91.40
2018-11-07T20:15:33.842Z,91.30
2018-11-07T20:18:03.706Z,91.30
2018-11-07T20:20:50.253Z,91.40
2018-11-07T20:23:19.567Z,91.30
2018-11-07T20:25:48.877Z,91.30
2018-11-07T20:28:24.384Z,91.30
2018-11-07T20:30:55.777Z,91.30
2018-11-07T20:33:25.199Z,91.30
2018-11-07T20:35:54.070Z,91.30
2018-11-07T20:38:22.601Z,91.30
2018-11-07T20:40:51.389Z,91.40
2018-11-07T20:43:21.403Z,91.40
2018-11-07T20:45:51.157Z,91.40
2018-11-07T20:48:21.041Z,91.40
2018-11-07T20:50:49.616Z,91.40
2018-11-07T20:53:18.943Z,91.40
2018-11-07T20:55:47.668Z,91.40
2018-11-07T20:58:16.506Z,91.30
2018-11-07T21:00:46.187Z,91.30
2018-11-07T21:03:14.859Z,91.10
2018-11-07T21:05:43.568Z,91.40
2018-11-07T21:08:12.420Z,91.30
2018-11-07T21:10:41.881Z,91.30
2018-11-07T21:13:11.609Z,91.30
2018-11-07T21:15:40.866Z,91.20
2018-11-07T21:18:10.542Z,91.30
2018-11-07T21:20:40.086Z,91.20
2018-11-07T21:23:10.340Z,91.20
2018-11-07T21:25:38.949Z,91.20
2018-11-07T21:28:07.746Z,91.10
2018-11-07T21:30:36.873Z,91.00
2018-11-07T21:33:05.690Z,91.10
2018-11-07T21:35:34.259Z,91.10
2018-11-07T21:38:02.941Z,91.00
2018-11-07T21:40:31.871Z,91.00
2018-11-07T21:43:01.264Z,91.00
2018-11-07T21:45:29.876Z,91.00
2018-11-07T21:47:58.503Z,90.90
2018-11-07T21:50:27.293Z,90.90
2018-11-07T21:52:55.862Z,90.90
2018-11-07T21:55:24.978Z,90.90
2018-11-07T21:57:54.468Z,90.90
2018-11-07T22:00:23.866Z,90.80
2018-11-07T22:02:54.645Z,91.20
2018-11-07T22:05:24.528Z,90.80
2018-11-07T22:07:53.367Z,90.70
2018-11-07T22:10:23.070Z,90.70
2018-11-07T22:12:52.853Z,90.70
2018-11-07T22:15:21.475Z,90.70
2018-11-07T22:17:50.210Z,90.70
2018-11-07T22:20:20.997Z,90.70
2018-11-07T22:22:52.910Z,90.70
2018-11-07T22:25:21.782Z,90.70
2018-11-07T22:27:50.625Z,90.70
2018-11-07T22:30:20.596Z,90.70
2018-11-07T22:32:50.482Z,90.70
2018-11-07T22:35:20.723Z,90.70
2018-11-07T22:37:49.464Z,90.70
2018-11-07T22:40:19.360Z,90.70
2018-11-07T22:42:48.283Z,90.70
2018-11-07T22:45:17.393Z,90.80
2018-11-07T22:47:46.263Z,90.80
2018-11-07T22:50:15.677Z,90.80
2018-11-07T22:52:45.068Z,90.70
2018-11-07T22:55:14.640Z,90.80
2018-11-07T22:57:43.532Z,90.80
2018-11-07T23:00:19.692Z,90.80
2018-11-07T23:02:49.738Z,90.80
2018-11-07T23:05:19.399Z,90.80
2018-11-07T23:07:48.751Z,90.80
2018-11-07T23:10:19.150Z,90.80
2018-11-07T23:12:50.652Z,90.80
2018-11-07T23:15:25.358Z,90.90
2018-11-07T23:17:53.960Z,90.90
2018-11-07T23:20:22.841Z,90.80
2018-11-07T23:22:52.036Z,90.80
2018-11-07T23:25:20.816Z,90.80
2018-11-07T23:27:50.191Z,90.70
2018-11-07T23:30:18.861Z,90.70
2018-11-07T23:32:47.982Z,90.70
2018-11-07T23:35:16.559Z,90.60
2018-11-07T23:37:45.512Z,90.70
2018-11-07T23:40:14.225Z,90.70
2018-11-07T23:42:42.925Z,90.70
2018-11-07T23:45:11.550Z,90.80
2018-11-07T23:47:40.603Z,90.80
2018-11-07T23:50:10.167Z,90.80
2018-11-07T23:52:45.358Z,90.80
2018-11-07T23:55:13.918Z,90.70
2018-11-07T23:57:43.264Z,90.70
